• Join FlightAware (Why Join?)
  • Login
  • US Flag 
06:57PM EST


 

Airport Tracker/Info


-or-


 

Live Flight TrackerFlight Track Log ✈ AAL1326 ✈ 20-Oct-2013 ✈ KTUL - KORD

Flight Track Log - Related Links

Times and Time Zones

All times are in EDT time to prevent confusion due to time zone crossing. See the AAL1326 flight status page for this flight to view local times or setup timezone preferences in your user account.

Time Position Orientation Groundspeed Altitude Reporting Facility
EDT Latitude Longitude Course Direction KTS MPH feet Rate Location/Type
09:45AM 36.1590 -95.8800 174° South 172 198 2,500  Level FlightAware
09:45AM 36.1470 -95.8770 169° South 198 228 2,700 1,200 Climbing FlightAware
09:45AM 36.1400 -95.8730 155° Southeast 210 242 2,900 1,860 Climbing FlightAware
09:46AM 36.1330 -95.8630 131° Southeast 233 268 3,200 1,680 Climbing FlightAware
09:46AM 36.1310 -95.8570 112° Southeast 246 283 3,300 1,620 Climbing FlightAware
09:46AM 36.1290 -95.8480 105° East 260 299 3,500 1,620 Climbing FlightAware
09:46AM 36.1290 -95.8440 90° East 267 307 3,600 3,000 Climbing FlightAware
09:46AM 36.1350 -95.8170 75° East 274 315 4,700 3,300 Climbing FlightAware
09:47AM 36.1510 -95.7860 57° Northeast 284 327 5,800 3,060 Climbing FlightAware
09:47AM 36.1680 -95.7530 57° Northeast 294 338 7,000 3,000 Climbing FlightAware
09:47AM 36.1800 -95.7290 58° Northeast 299 344 7,800 3,120 Climbing FlightAware
09:48AM 36.1980 -95.6940 57° Northeast 305 351 9,100 2,880 Climbing FlightAware
09:48AM 36.2280 -95.6340 58° Northeast 325 374 11,000 2,700 Climbing FlightAware
09:49AM 36.2590 -95.5730 58° Northeast 354 407 12,500 2,940 Climbing FlightAware
09:50AM 36.2930 -95.5050 58° Northeast 368 423 14,600 3,000 Climbing FlightAware
09:50AM 36.3200 -95.4520 58° Northeast 381 438 16,100 3,180 Climbing FlightAware
09:51AM 36.3550 -95.3830 58° Northeast 390 449 18,100 3,060 Climbing FlightAware
09:51AM 36.3890 -95.3160 58° Northeast 404 465 19,700 2,700 Climbing FlightAware
09:52AM 36.4240 -95.2450 58° Northeast 415 478 21,300 2,580 Climbing FlightAware
09:52AM 36.4580 -95.1770 58° Northeast 425 489 22,700 2,460 Climbing FlightAware
09:53AM 36.4960 -95.1030 57° Northeast 433 498 24,200 2,460 Climbing FlightAware
09:54AM 36.5350 -95.0270 57° Northeast 439 505 25,600 2,220 Climbing FlightAware
09:54AM 36.5820 -94.9610 48° Northeast 442 509 26,800 2,040 Climbing FlightAware
09:55AM 36.6490 -94.8750 46° Northeast 452 520 28,400 1,920 Climbing FlightAware
09:55AM 36.7030 -94.8040 46° Northeast 461 531 29,500 1,620 Climbing FlightAware
09:56AM 36.7500 -94.7440 46° Northeast 468 539 30,300 1,560 Climbing FlightAware
09:57AM 36.8050 -94.6720 46° Northeast 474 545 31,300 1,560 Climbing FlightAware
09:57AM 36.8590 -94.6010 46° Northeast 480 552 32,200 1,500 Climbing FlightAware
09:58AM 36.9140 -94.5290 46° Northeast 485 558 33,100 1,200 Climbing FlightAware
09:58AM 36.9620 -94.4660 46° Northeast 495 570 33,600 1,020 Climbing FlightAware
09:59AM 37.0230 -94.3860 46° Northeast 505 581 34,300 1,200 Climbing FlightAware
10:00AM 37.0800 -94.3100 47° Northeast 507 583 35,100 1,500 Climbing FlightAware
10:00AM 37.1340 -94.2380 47° Northeast 501 577 36,100 1,860 Climbing FlightAware
10:01AM 37.1920 -94.1620 46° Northeast 493 567 37,300 1,620 Climbing FlightAware
10:01AM 37.2390 -94.1000 46° Northeast 493 567 37,900 720 Climbing FlightAware
10:02AM 37.3010 -94.0170 47° Northeast 502 578 38,200 480 Climbing FlightAware
10:02AM 37.3560 -93.9440 47° Northeast 512 589 38,500 600 Climbing FlightAware
10:03AM 37.4150 -93.8650 47° Northeast 517 595 38,900 660 Climbing FlightAware
10:04AM 37.4670 -93.7940 47° Northeast 520 598 39,300 900 Climbing FlightAware
10:04AM 37.5300 -93.7100 47° Northeast 518 596 40,000 1,080 Climbing FlightAware
10:05AM 37.5820 -93.6410 46° Northeast 514 592 40,600 900 Climbing FlightAware
10:05AM 37.6340 -93.5700 47° Northeast 512 589 41,000 360 Climbing FlightAware
10:06AM 37.6820 -93.5050 47° Northeast 512 589 41,000  Level FlightAware
10:06AM 37.7390 -93.4280 47° Northeast 511 588 41,000  Level FlightAware
10:07AM 37.7970 -93.3500 47° Northeast 511 588 41,000  Level FlightAware
10:08AM 37.8550 -93.2690 48° Northeast 510 587 41,000  Level FlightAware
10:08AM 37.9130 -93.1910 47° Northeast 510 587 41,000  Level FlightAware
10:09AM 37.9670 -93.1170 47° Northeast 511 588 41,000  Level FlightAware
10:09AM 38.0230 -93.0400 47° Northeast 511 588 41,000  Level FlightAware
10:10AM 38.0800 -92.9610 47° Northeast 510 587 41,000  Level FlightAware
10:10AM 38.1320 -92.8890 47° Northeast 509 586 41,000  Level FlightAware
10:11AM 38.1910 -92.8080 47° Northeast 508 585 41,000  Level FlightAware
10:12AM 38.2280 -92.7560 48° Northeast 507 583 41,000  Level FlightAware
10:12AM 38.3000 -92.6550 48° Northeast 505 581 41,000  Level FlightAware
10:13AM 38.3540 -92.5810 47° Northeast 503 579 41,000  Level FlightAware
10:13AM 38.4130 -92.5000 47° Northeast 504 580 41,000  Level FlightAware
10:14AM 38.4780 -92.4110 47° Northeast 507 583 41,000  Level FlightAware
10:15AM 38.5410 -92.3210 48° Northeast 512 589 41,000  Level FlightAware
10:15AM 38.5990 -92.2380 48° Northeast 512 589 41,000  Level FlightAware
10:16AM 38.6540 -92.1610 48° Northeast 511 588 41,000  Level FlightAware
10:17AM 38.7120 -92.0780 48° Northeast 511 588 41,000  Level FlightAware
10:17AM 38.7640 -92.0050 48° Northeast 509 586 41,000  Level FlightAware
10:18AM 38.8140 -91.9340 48° Northeast 508 585 41,000  Level FlightAware
10:18AM 38.8770 -91.8450 48° Northeast 507 583 41,000  Level FlightAware
10:19AM 38.9330 -91.7640 48° Northeast 507 583 41,000  Level FlightAware
10:19AM 38.9850 -91.6900 48° Northeast 506 582 41,000  Level FlightAware
10:20AM 39.0380 -91.6130 48° Northeast 505 581 41,000  Level FlightAware
10:21AM 39.0890 -91.5390 48° Northeast 505 581 41,000  Level FlightAware
10:21AM 39.1460 -91.4570 48° Northeast 505 581 41,000  Level FlightAware
10:22AM 39.2000 -91.3790 48° Northeast 503 579 41,000  Level FlightAware
10:22AM 39.2560 -91.2970 49° Northeast 502 578 41,000  Level FlightAware
10:23AM 39.3110 -91.2170 48° Northeast 501 577 41,000  Level FlightAware
10:24AM 39.3580 -91.1500 48° Northeast 500 575 41,000  Level FlightAware
10:24AM 39.4190 -91.0610 48° Northeast 500 575 41,000  Level FlightAware
10:25AM 39.4660 -90.9920 49° Northeast 499 574 41,000 -480 Level FlightAware
10:25AM 39.5250 -90.9160 45° Northeast 502 578 40,500 -840 Descending FlightAware
10:26AM 39.5860 -90.8360 45° Northeast 496 571 40,000 -900 Descending FlightAware
10:26AM 39.6340 -90.7720 46° Northeast 495 570 39,500 -1,020 Descending FlightAware
10:27AM 39.6950 -90.6920 45° Northeast 501 577 38,900 -1,020 Descending FlightAware
10:28AM 39.7530 -90.6150 46° Northeast 502 578 38,300 -960 Descending FlightAware
10:28AM 39.8040 -90.5480 45° Northeast 493 567 37,800 -960 Descending FlightAware
10:29AM 39.8650 -90.4670 46° Northeast 495 570 37,200 -720 Descending FlightAware
10:29AM 39.9250 -90.3880 45° Northeast 494 568 37,000 -180 Descending FlightAware
10:30AM 39.9780 -90.3170 46° Northeast 493 567 37,000  Level FlightAware
10:31AM 40.0320 -90.2450 46° Northeast 492 566 37,000 -420 Level FlightAware
10:31AM 40.0880 -90.1700 46° Northeast 495 570 36,500 -960 Descending FlightAware
10:32AM 40.1520 -90.0850 45° Northeast 502 578 35,900 -960 Descending FlightAware
10:32AM 40.2030 -90.0170 46° Northeast 502 578 35,400 -1,020 Descending FlightAware
10:33AM 40.2550 -89.9460 46° Northeast 499 574 34,800 -1,200 Descending FlightAware
10:33AM 40.3150 -89.8640 46° Northeast 492 566 34,000 -1,380 Descending FlightAware
10:34AM 40.3750 -89.7900 43° Northeast 494 568 33,100 -1,620 Descending FlightAware
10:35AM 40.4300 -89.7260 42° Northeast 488 562 32,200 -2,460 Descending FlightAware
10:35AM 40.4940 -89.6540 41° Northeast 491 565 30,300 -2,760 Descending FlightAware
10:36AM 40.5520 -89.5870 41° Northeast 487 560 28,900 -2,640 Descending FlightAware
10:36AM 40.6070 -89.5250 41° Northeast 476 548 27,400 -2,520 Descending FlightAware
10:37AM 40.6640 -89.4590 41° Northeast 463 533 26,100 -2,160 Descending FlightAware
10:38AM 40.7220 -89.3920 41° Northeast 452 520 24,800 -2,160 Descending FlightAware
10:38AM 40.7800 -89.3250 41° Northeast 458 527 23,600 -1,980 Descending FlightAware
10:39AM 40.8330 -89.2600 43° Northeast 446 513 22,500 -1,920 Descending FlightAware
10:39AM 40.8850 -89.1980 42° Northeast 447 514 21,400 -2,100 Descending FlightAware
10:40AM 40.9420 -89.1300 42° Northeast 434 499 20,100 -2,040 Descending FlightAware
10:40AM 40.9870 -89.0750 43° Northeast 426 490 19,100 -2,040 Descending FlightAware
10:41AM 41.0430 -89.0090 42° Northeast 415 478 17,800 -2,160 Descending FlightAware
10:42AM 41.0940 -88.9480 42° Northeast 407 468 16,500 -2,100 Descending FlightAware
10:42AM 41.1420 -88.8890 43° Northeast 402 463 15,300 -2,040 Descending FlightAware
10:43AM 41.1920 -88.8290 42° Northeast 392 451 14,100 -1,980 Descending FlightAware
10:43AM 41.2340 -88.7780 42° Northeast 384 442 13,100 -1,980 Descending FlightAware
10:44AM 41.2780 -88.7240 43° Northeast 379 436 12,000 -1,740 Descending FlightAware
10:45AM 41.3250 -88.6680 42° Northeast 370 426 11,100 -840 Descending FlightAware
10:45AM 41.3730 -88.6090 43° Northeast 370 426 11,000 -120 Descending FlightAware
10:46AM 41.4120 -88.5620 42° Northeast 368 423 11,000  Level FlightAware
10:46AM 41.4600 -88.5060 41° Northeast 368 423 11,000 -180 Level FlightAware
10:47AM 41.5000 -88.4570 43° Northeast 370 426 10,800 -720 Descending FlightAware
10:47AM 41.5450 -88.4040 41° Northeast 363 418 10,200 -660 Descending FlightAware
10:48AM 41.5920 -88.3480 42° Northeast 358 412 10,000 -180 Descending FlightAware
10:49AM 41.6360 -88.2960 41° Northeast 360 414 10,000  Level FlightAware
10:49AM 41.6810 -88.2420 42° Northeast 360 414 10,000 60 Level FlightAware
10:50AM 41.7220 -88.1940 41° Northeast 361 415 10,100  Climbing FlightAware
10:50AM 41.7650 -88.1420 42° Northeast 356 410 10,000 -120 Descending FlightAware
10:51AM 41.8040 -88.0950 42° Northeast 315 362 10,000 -420 Level FlightAware
10:51AM 41.8290 -88.0630 44° Northeast 304 350 9,600 -1,080 Descending FlightAware
10:52AM 41.8370 -88.0480 54° Northeast 305 351 9,400 -1,200 Descending FlightAware
10:52AM 41.8430 -88.0310 65° Northeast 305 351 9,200 -1,140 Descending FlightAware
10:52AM 41.8480 -88.0070 74° East 305 351 9,000 -1,020 Descending FlightAware
10:52AM 41.8560 -87.9730 72° East 298 343 8,700 -1,020 Descending FlightAware
10:53AM 41.8610 -87.9320 81° East 292 336 8,300 -1,200 Descending FlightAware
10:53AM 41.8660 -87.9040 77° East 293 337 7,900 -1,560 Descending FlightAware
10:53AM 41.8720 -87.8700 77° East 293 337 7,400 -1,500 Descending FlightAware
10:54AM 41.8790 -87.8350 75° East 291 335 6,900 -1,320 Descending FlightAware
10:54AM 41.8830 -87.8040 80° East 290 334 6,600 -1,200 Descending FlightAware
10:54AM 41.8840 -87.7740 87° East 287 330 6,200 -1,320 Descending FlightAware
10:54AM 41.8840 -87.7380 90° East 284 327 5,800 -1,080 Descending FlightAware
10:55AM 41.8960 -87.6950 69° East 267 307 5,400 -1,140 Descending FlightAware
10:55AM 41.9050 -87.6880 30° Northeast 256 295 5,100 -2,040 Descending FlightAware
10:55AM 41.9150 -87.6850 13° North 250 288 4,800 -1,920 Descending FlightAware
10:56AM 41.9370 -87.7000 333° Northwest 211 243 4,100 -1,620 Descending FlightAware
10:56AM 41.9480 -87.7220 304° West 187 215 3,600 -1,500 Descending FlightAware
10:56AM 41.9580 -87.7430 303° West 172 198 3,000 -1,380 Descending FlightAware
10:57AM 41.9650 -87.7620 296° West 158 182 2,600 -1,020 Descending FlightAware
10:57AM 41.9650 -87.7710 270° West 155 178 2,500 -900 Descending FlightAware
10:57AM 41.9660 -87.7900 274° West 151 174 2,200 -900 Descending FlightAware
10:57AM 41.9660 -87.8030 270° West 139 160 2,000 -780 Descending FlightAware
10:58AM 41.9660 -87.8370 270° West 135 155 1,500 -780 Descending FlightAware
10:58AM 41.9660 -87.8500 270° West 138 159 1,300 -720 Descending FlightAware
10:59AM 41.9660 -87.8670 270° West 141 162 1,100 -660 Descending FlightAware
10:59AM 41.9660 -87.8900 270° West 140 161 800 -720 Descending FlightAware